Portada
METAR-TAF:

METAR-TAF

Aeropuertos :

Aeropuerto de Pau-Pirineos

Pau, Francia

latitud: 43-23N, longitud: 000-25W, altitud: 188 m

Observación

El informe se hizo hace 33 minutos, a las 09:00 UTC
Viento 4 kt del este-sureste
Temperatura 12°C
Humedad 82%
Presión 1016 hPa
Visibilidad 10 km o más
sin nubes por debajo de 1500 m y sin presencia de cumulonimbus.

METAR: LFBP 170900Z AUTO 12004KT CAVOK 12/09 Q1016 NOSIG

Hora: 10:33 (09:33 UTC)

Pronóstico

El informe se hizo hace 4 horas y 33 minutos, a las 05:00 UTC
Pronóstico válido del 17 a las 06 UTC al 18 a las 06 UTC
Viento 4 kt del este-sureste
Visibilidad 10 km o más
sin nubes por debajo de 1500 m y sin presencia de cumulonimbus.
Probabilidad 30% :
Temporalmente
del 17 a las 06 UTC al 17 a las 08 UTC
Visibilidad: 3000 m
neblina

TAF: LFBP 170500Z 1706/1806 12004KT CAVOK PROB30 TEMPO 1706/1708 3000 BR

Observaciones y pronósticos meteorológicos de más de 4000 aeropuertos (mensajes METAR y TAF).

Los puntos amarillos y rojos representan las estaciones disponibles.

Ponga el ratón en el punto deseado para ver el nombre de la estación.

Haga clic para ver las observaciones y los pronósticos meteorológicos.

Para cambiar el mapa : haga clic en los botones verdes con una cruz de color negro para hacer un zoom, en el botón verde con un guión para alejar o en las flechas verdes para mapas adyacentes.


METAR-TAF: